sensor_id;sensor_type;location;lat;lon;timestamp;temperature;humidity
24252;DHT22;12380;51.118;4.176;2023-03-01T00:01:30;2.20;99.90
24252;DHT22;12380;51.118;4.176;2023-03-01T00:03:56;2.10;99.90
24252;DHT22;12380;51.118;4.176;2023-03-01T00:06:25;2.10;99.90
24252;DHT22;12380;51.118;4.176;2023-03-01T00:08:51;2.10;99.90
24252;DHT22;12380;51.118;4.176;2023-03-01T00:11:25;2.20;99.90
24252;DHT22;12380;51.118;4.176;2023-03-01T00:13:54;2.20;99.90
24252;DHT22;12380;51.118;4.176;2023-03-01T00:16:25;1.90;99.90
24252;DHT22;12380;51.118;4.176;2023-03-01T00:18:55;1.80;99.90
24252;DHT22;12380;51.118;4.176;2023-03-01T00:21:22;1.90;99.90
24252;DHT22;12380;51.118;4.176;2023-03-01T00:23:51;2.00;99.90
24252;DHT22;12380;51.118;4.176;2023-03-01T00:26:19;2.00;99.90
24252;DHT22;12380;51.118;4.176;2023-03-01T00:28:47;1.90;99.90
24252;DHT22;12380;51.118;4.176;2023-03-01T00:31:19;1.80;99.90
24252;DHT22;12380;51.118;4.176;2023-03-01T00:33:47;1.80;99.90
24252;DHT22;12380;51.118;4.176;2023-03-01T00:36:14;1.70;99.90
24252;DHT22;12380;51.118;4.176;2023-03-01T00:38:42;2.00;99.90
24252;DHT22;12380;51.118;4.176;2023-03-01T00:41:15;1.90;99.90
24252;DHT22;12380;51.118;4.176;2023-03-01T00:43:41;2.00;99.90
24252;DHT22;12380;51.118;4.176;2023-03-01T00:46:13;2.00;99.90
24252;DHT22;12380;51.118;4.176;2023-03-01T00:48:39;1.80;99.90
24252;DHT22;12380;51.118;4.176;2023-03-01T00:51:06;1.80;99.90
24252;DHT22;12380;51.118;4.176;2023-03-01T00:53:35;1.60;99.90
24252;DHT22;12380;51.118;4.176;2023-03-01T00:56:02;1.80;99.90
24252;DHT22;12380;51.118;4.176;2023-03-01T00:58:28;1.90;99.90
24252;DHT22;12380;51.118;4.176;2023-03-01T01:00:54;1.80;99.90
24252;DHT22;12380;51.118;4.176;2023-03-01T01:03:22;1.80;99.90
24252;DHT22;12380;51.118;4.176;2023-03-01T01:05:52;1.70;99.90
24252;DHT22;12380;51.118;4.176;2023-03-01T01:08:19;1.80;99.90
24252;DHT22;12380;51.118;4.176;2023-03-01T01:10:45;1.80;99.90
24252;DHT22;12380;51.118;4.176;2023-03-01T01:13:13;1.70;99.90
24252;DHT22;12380;51.118;4.176;2023-03-01T01:15:40;1.70;99.90
24252;DHT22;12380;51.118;4.176;2023-03-01T01:18:06;1.70;99.90
24252;DHT22;12380;51.118;4.176;2023-03-01T01:20:35;1.60;99.90
24252;DHT22;12380;51.118;4.176;2023-03-01T01:23:05;1.60;99.90
24252;DHT22;12380;51.118;4.176;2023-03-01T01:25:34;1.40;99.90
24252;DHT22;12380;51.118;4.176;2023-03-01T01:28:00;1.80;99.90
24252;DHT22;12380;51.118;4.176;2023-03-01T01:30:28;1.70;99.90
24252;DHT22;12380;51.118;4.176;2023-03-01T01:32:56;1.70;99.90
24252;DHT22;12380;51.118;4.176;2023-03-01T01:35:22;1.70;99.90
24252;DHT22;12380;51.118;4.176;2023-03-01T01:37:48;1.50;99.90
24252;DHT22;12380;51.118;4.176;2023-03-01T01:40:13;1.50;99.90
24252;DHT22;12380;51.118;4.176;2023-03-01T01:42:39;1.60;99.90
24252;DHT22;12380;51.118;4.176;2023-03-01T01:45:24;1.40;99.90
24252;DHT22;12380;51.118;4.176;2023-03-01T01:47:51;1.20;99.90
24252;DHT22;12380;51.118;4.176;2023-03-01T01:50:20;1.40;99.90
24252;DHT22;12380;51.118;4.176;2023-03-01T01:52:48;1.20;99.90
24252;DHT22;12380;51.118;4.176;2023-03-01T01:55:18;1.20;99.90
24252;DHT22;12380;51.118;4.176;2023-03-01T01:57:58;1.10;99.90
24252;DHT22;12380;51.118;4.176;2023-03-01T02:00:28;1.10;99.90
24252;DHT22;12380;51.118;4.176;2023-03-01T02:03:04;1.10;99.90
24252;DHT22;12380;51.118;4.176;2023-03-01T02:05:51;1.00;99.90
24252;DHT22;12380;51.118;4.176;2023-03-01T02:08:19;1.10;99.90
24252;DHT22;12380;51.118;4.176;2023-03-01T02:10:46;1.20;99.90
24252;DHT22;12380;51.118;4.176;2023-03-01T02:13:13;1.20;99.90
24252;DHT22;12380;51.118;4.176;2023-03-01T02:15:41;1.10;99.90
24252;DHT22;12380;51.118;4.176;2023-03-01T02:18:10;1.20;99.90
24252;DHT22;12380;51.118;4.176;2023-03-01T02:23:44;1.20;99.90
24252;DHT22;12380;51.118;4.176;2023-03-01T02:28:44;1.30;99.90
24252;DHT22;12380;51.118;4.176;2023-03-01T02:31:16;1.10;99.90
24252;DHT22;12380;51.118;4.176;2023-03-01T02:34:02;1.10;99.90
24252;DHT22;12380;51.118;4.176;2023-03-01T02:36:39;1.20;99.90
24252;DHT22;12380;51.118;4.176;2023-03-01T02:39:08;1.20;99.90
24252;DHT22;12380;51.118;4.176;2023-03-01T02:41:42;1.40;99.90
24252;DHT22;12380;51.118;4.176;2023-03-01T02:44:08;1.50;99.90
24252;DHT22;12380;51.118;4.176;2023-03-01T02:46:41;1.40;99.90
24252;DHT22;12380;51.118;4.176;2023-03-01T02:49:26;1.10;99.90
24252;DHT22;12380;51.118;4.176;2023-03-01T02:56:55;1.30;99.90
24252;DHT22;12380;51.118;4.176;2023-03-01T02:59:27;1.30;99.90
24252;DHT22;12380;51.118;4.176;2023-03-01T03:01:54;1.20;99.90
24252;DHT22;12380;51.118;4.176;2023-03-01T03:04:22;1.20;99.90
24252;DHT22;12380;51.118;4.176;2023-03-01T03:06:49;1.30;99.90
24252;DHT22;12380;51.118;4.176;2023-03-01T03:09:18;1.40;99.90
24252;DHT22;12380;51.118;4.176;2023-03-01T03:11:44;1.00;99.90
24252;DHT22;12380;51.118;4.176;2023-03-01T03:14:16;1.00;99.90
24252;DHT22;12380;51.118;4.176;2023-03-01T03:16:45;1.30;99.90
24252;DHT22;12380;51.118;4.176;2023-03-01T03:19:11;1.20;99.90
24252;DHT22;12380;51.118;4.176;2023-03-01T03:21:37;1.00;99.90
24252;DHT22;12380;51.118;4.176;2023-03-01T03:24:05;0.90;99.90
24252;DHT22;12380;51.118;4.176;2023-03-01T03:26:32;1.10;99.90
24252;DHT22;12380;51.118;4.176;2023-03-01T03:28:58;1.20;99.90
24252;DHT22;12380;51.118;4.176;2023-03-01T03:31:23;1.00;99.90
24252;DHT22;12380;51.118;4.176;2023-03-01T03:33:49;0.90;99.90
24252;DHT22;12380;51.118;4.176;2023-03-01T03:36:22;1.00;99.90
24252;DHT22;12380;51.118;4.176;2023-03-01T03:38:48;1.00;99.90
24252;DHT22;12380;51.118;4.176;2023-03-01T03:41:15;0.80;99.90
24252;DHT22;12380;51.118;4.176;2023-03-01T03:43:41;1.10;99.90
24252;DHT22;12380;51.118;4.176;2023-03-01T03:46:11;0.80;99.90
24252;DHT22;12380;51.118;4.176;2023-03-01T03:48:44;0.70;99.90
24252;DHT22;12380;51.118;4.176;2023-03-01T03:51:16;0.90;99.90
24252;DHT22;12380;51.118;4.176;2023-03-01T03:53:43;0.90;99.90
24252;DHT22;12380;51.118;4.176;2023-03-01T03:56:09;0.90;99.90
24252;DHT22;12380;51.118;4.176;2023-03-01T03:58:35;0.90;99.90
24252;DHT22;12380;51.118;4.176;2023-03-01T04:01:01;0.90;99.90
24252;DHT22;12380;51.118;4.176;2023-03-01T04:03:28;1.00;99.90
24252;DHT22;12380;51.118;4.176;2023-03-01T04:05:54;0.80;99.90
24252;DHT22;12380;51.118;4.176;2023-03-01T04:08:22;0.90;99.90
24252;DHT22;12380;51.118;4.176;2023-03-01T04:10:50;0.60;99.90
24252;DHT22;12380;51.118;4.176;2023-03-01T04:13:19;0.80;99.90
24252;DHT22;12380;51.118;4.176;2023-03-01T04:15:50;0.90;99.90
24252;DHT22;12380;51.118;4.176;2023-03-01T04:18:18;0.90;99.90
24252;DHT22;12380;51.118;4.176;2023-03-01T04:20:45;0.60;99.90
24252;DHT22;12380;51.118;4.176;2023-03-01T04:23:16;0.50;99.90
24252;DHT22;12380;51.118;4.176;2023-03-01T04:25:54;0.40;99.90
24252;DHT22;12380;51.118;4.176;2023-03-01T04:30:51;0.50;99.90
24252;DHT22;12380;51.118;4.176;2023-03-01T04:33:17;0.70;99.90
24252;DHT22;12380;51.118;4.176;2023-03-01T04:35:43;0.90;99.90
24252;DHT22;12380;51.118;4.176;2023-03-01T04:38:09;1.00;99.90
24252;DHT22;12380;51.118;4.176;2023-03-01T04:40:35;0.80;99.90
24252;DHT22;12380;51.118;4.176;2023-03-01T04:43:02;0.80;99.90
24252;DHT22;12380;51.118;4.176;2023-03-01T04:45:31;0.80;99.90
24252;DHT22;12380;51.118;4.176;2023-03-01T04:47:57;0.70;99.90
24252;DHT22;12380;51.118;4.176;2023-03-01T04:50:25;0.50;99.90
24252;DHT22;12380;51.118;4.176;2023-03-01T04:52:52;0.60;99.90
24252;DHT22;12380;51.118;4.176;2023-03-01T04:55:17;0.60;99.90
24252;DHT22;12380;51.118;4.176;2023-03-01T04:57:46;0.70;99.90
24252;DHT22;12380;51.118;4.176;2023-03-01T05:00:13;0.60;99.90
24252;DHT22;12380;51.118;4.176;2023-03-01T05:02:53;0.90;99.90
24252;DHT22;12380;51.118;4.176;2023-03-01T05:05:31;0.60;99.90
24252;DHT22;12380;51.118;4.176;2023-03-01T05:07:59;0.60;99.90
24252;DHT22;12380;51.118;4.176;2023-03-01T05:10:29;0.70;99.90
24252;DHT22;12380;51.118;4.176;2023-03-01T05:12:59;0.80;99.90
24252;DHT22;12380;51.118;4.176;2023-03-01T05:15:29;0.60;99.90
24252;DHT22;12380;51.118;4.176;2023-03-01T05:17:59;0.50;99.90
24252;DHT22;12380;51.118;4.176;2023-03-01T05:20:29;0.40;99.90
24252;DHT22;12380;51.118;4.176;2023-03-01T05:22:58;0.40;99.90
24252;DHT22;12380;51.118;4.176;2023-03-01T05:25:25;0.40;99.90
24252;DHT22;12380;51.118;4.176;2023-03-01T05:27:51;0.50;99.90
24252;DHT22;12380;51.118;4.176;2023-03-01T05:30:17;0.50;99.90
24252;DHT22;12380;51.118;4.176;2023-03-01T05:32:47;0.40;99.90
24252;DHT22;12380;51.118;4.176;2023-03-01T05:35:14;0.50;99.90
24252;DHT22;12380;51.118;4.176;2023-03-01T05:37:41;0.50;99.90
24252;DHT22;12380;51.118;4.176;2023-03-01T05:40:10;0.50;99.90
24252;DHT22;12380;51.118;4.176;2023-03-01T05:42:45;0.70;99.90
24252;DHT22;12380;51.118;4.176;2023-03-01T05:45:12;0.60;99.90
24252;DHT22;12380;51.118;4.176;2023-03-01T05:47:39;0.70;99.90
24252;DHT22;12380;51.118;4.176;2023-03-01T05:50:26;1.10;99.90
24252;DHT22;12380;51.118;4.176;2023-03-01T05:53:20;1.10;99.90
24252;DHT22;12380;51.118;4.176;2023-03-01T05:55:49;1.10;99.90
24252;DHT22;12380;51.118;4.176;2023-03-01T05:58:17;1.00;99.90
24252;DHT22;12380;51.118;4.176;2023-03-01T06:00:44;1.00;99.90
24252;DHT22;12380;51.118;4.176;2023-03-01T06:03:12;1.00;99.90
24252;DHT22;12380;51.118;4.176;2023-03-01T06:05:41;0.90;99.90
24252;DHT22;12380;51.118;4.176;2023-03-01T06:08:08;1.00;99.90
24252;DHT22;12380;51.118;4.176;2023-03-01T06:10:34;1.10;99.90
24252;DHT22;12380;51.118;4.176;2023-03-01T06:13:00;1.10;99.90
24252;DHT22;12380;51.118;4.176;2023-03-01T06:15:26;1.10;99.90
24252;DHT22;12380;51.118;4.176;2023-03-01T06:17:55;1.00;99.90
24252;DHT22;12380;51.118;4.176;2023-03-01T06:20:26;1.00;99.90
24252;DHT22;12380;51.118;4.176;2023-03-01T06:22:55;1.00;99.90
24252;DHT22;12380;51.118;4.176;2023-03-01T06:25:23;0.90;99.90
24252;DHT22;12380;51.118;4.176;2023-03-01T06:27:49;0.90;99.90
24252;DHT22;12380;51.118;4.176;2023-03-01T06:30:17;0.90;99.90
24252;DHT22;12380;51.118;4.176;2023-03-01T06:32:43;0.80;99.90
24252;DHT22;12380;51.118;4.176;2023-03-01T06:35:13;0.70;99.90
24252;DHT22;12380;51.118;4.176;2023-03-01T06:37:40;0.50;99.90
24252;DHT22;12380;51.118;4.176;2023-03-01T06:40:07;0.50;99.90
24252;DHT22;12380;51.118;4.176;2023-03-01T06:42:41;0.80;99.90
24252;DHT22;12380;51.118;4.176;2023-03-01T06:45:10;1.10;99.90
24252;DHT22;12380;51.118;4.176;2023-03-01T06:47:36;1.20;99.90
24252;DHT22;12380;51.118;4.176;2023-03-01T06:50:02;1.10;99.90
24252;DHT22;12380;51.118;4.176;2023-03-01T06:52:28;1.10;99.90
24252;DHT22;12380;51.118;4.176;2023-03-01T06:54:57;1.20;99.90
24252;DHT22;12380;51.118;4.176;2023-03-01T06:57:23;1.10;99.90
24252;DHT22;12380;51.118;4.176;2023-03-01T06:59:48;1.20;99.90
24252;DHT22;12380;51.118;4.176;2023-03-01T07:02:14;1.10;99.90
24252;DHT22;12380;51.118;4.176;2023-03-01T07:04:41;0.80;99.90
24252;DHT22;12380;51.118;4.176;2023-03-01T07:07:07;1.00;99.90
24252;DHT22;12380;51.118;4.176;2023-03-01T07:09:33;1.20;99.90
24252;DHT22;12380;51.118;4.176;2023-03-01T07:11:58;1.30;99.90
24252;DHT22;12380;51.118;4.176;2023-03-01T07:14:27;1.10;99.90
24252;DHT22;12380;51.118;4.176;2023-03-01T07:16:54;1.20;99.90
24252;DHT22;12380;51.118;4.176;2023-03-01T07:19:20;1.10;99.90
24252;DHT22;12380;51.118;4.176;2023-03-01T07:21:46;1.00;99.90
24252;DHT22;12380;51.118;4.176;2023-03-01T07:24:12;1.00;99.90
24252;DHT22;12380;51.118;4.176;2023-03-01T07:26:37;1.10;99.90
24252;DHT22;12380;51.118;4.176;2023-03-01T07:29:07;1.40;99.90
24252;DHT22;12380;51.118;4.176;2023-03-01T07:31:33;1.50;99.90
24252;DHT22;12380;51.118;4.176;2023-03-01T07:34:02;1.50;99.90
24252;DHT22;12380;51.118;4.176;2023-03-01T07:36:28;1.50;99.90
24252;DHT22;12380;51.118;4.176;2023-03-01T07:38:54;1.40;99.90
24252;DHT22;12380;51.118;4.176;2023-03-01T07:41:21;1.30;99.90
24252;DHT22;12380;51.118;4.176;2023-03-01T07:43:47;1.50;99.90
24252;DHT22;12380;51.118;4.176;2023-03-01T07:46:12;1.60;99.90
24252;DHT22;12380;51.118;4.176;2023-03-01T07:48:38;1.50;99.90
24252;DHT22;12380;51.118;4.176;2023-03-01T07:51:05;1.60;99.90
24252;DHT22;12380;51.118;4.176;2023-03-01T07:53:31;1.70;99.90
24252;DHT22;12380;51.118;4.176;2023-03-01T07:58:30;1.50;99.90
24252;DHT22;12380;51.118;4.176;2023-03-01T08:01:00;1.70;99.90
24252;DHT22;12380;51.118;4.176;2023-03-01T08:03:26;1.70;99.90
24252;DHT22;12380;51.118;4.176;2023-03-01T08:05:51;1.60;99.90
24252;DHT22;12380;51.118;4.176;2023-03-01T08:08:17;1.50;99.90
24252;DHT22;12380;51.118;4.176;2023-03-01T08:10:45;2.00;99.90
24252;DHT22;12380;51.118;4.176;2023-03-01T08:13:13;2.90;99.90
24252;DHT22;12380;51.118;4.176;2023-03-01T08:15:38;4.40;99.90
24252;DHT22;12380;51.118;4.176;2023-03-01T08:18:04;5.70;99.90
24252;DHT22;12380;51.118;4.176;2023-03-01T08:20:32;6.00;99.90
24252;DHT22;12380;51.118;4.176;2023-03-01T08:22:58;6.90;99.90
24252;DHT22;12380;51.118;4.176;2023-03-01T08:25:24;8.00;99.90
24252;DHT22;12380;51.118;4.176;2023-03-01T08:27:49;8.70;99.90
24252;DHT22;12380;51.118;4.176;2023-03-01T08:30:17;9.50;99.90
24252;DHT22;12380;51.118;4.176;2023-03-01T08:32:44;9.20;99.90
24252;DHT22;12380;51.118;4.176;2023-03-01T08:35:09;9.50;99.90
24252;DHT22;12380;51.118;4.176;2023-03-01T08:37:35;10.00;99.90
24252;DHT22;12380;51.118;4.176;2023-03-01T08:40:01;10.60;99.90
24252;DHT22;12380;51.118;4.176;2023-03-01T08:42:26;11.10;99.90
24252;DHT22;12380;51.118;4.176;2023-03-01T08:44:52;11.40;99.90
24252;DHT22;12380;51.118;4.176;2023-03-01T08:47:18;11.60;99.90
24252;DHT22;12380;51.118;4.176;2023-03-01T08:49:44;11.70;99.90
24252;DHT22;12380;51.118;4.176;2023-03-01T08:52:10;12.60;99.90
24252;DHT22;12380;51.118;4.176;2023-03-01T08:54:35;12.60;99.90
24252;DHT22;12380;51.118;4.176;2023-03-01T08:57:03;12.30;99.90
24252;DHT22;12380;51.118;4.176;2023-03-01T08:59:29;12.10;99.90
24252;DHT22;12380;51.118;4.176;2023-03-01T09:01:56;12.40;99.90
24252;DHT22;12380;51.118;4.176;2023-03-01T09:04:22;12.50;99.90
24252;DHT22;12380;51.118;4.176;2023-03-01T09:06:47;12.50;99.90
24252;DHT22;12380;51.118;4.176;2023-03-01T09:09:16;12.00;99.90
24252;DHT22;12380;51.118;4.176;2023-03-01T09:11:43;12.10;99.90
24252;DHT22;12380;51.118;4.176;2023-03-01T09:14:16;12.70;99.90
24252;DHT22;12380;51.118;4.176;2023-03-01T09:16:42;12.20;99.90
24252;DHT22;12380;51.118;4.176;2023-03-01T09:19:08;11.70;99.90
24252;DHT22;12380;51.118;4.176;2023-03-01T09:21:33;11.20;99.90
24252;DHT22;12380;51.118;4.176;2023-03-01T09:23:59;11.30;99.90
24252;DHT22;12380;51.118;4.176;2023-03-01T09:26:25;11.20;99.90
24252;DHT22;12380;51.118;4.176;2023-03-01T09:28:54;10.70;99.90
24252;DHT22;12380;51.118;4.176;2023-03-01T09:46:54;11.70;99.90
24252;DHT22;12380;51.118;4.176;2023-03-01T09:49:33;12.50;99.90
24252;DHT22;12380;51.118;4.176;2023-03-01T09:52:16;12.50;99.90
24252;DHT22;12380;51.118;4.176;2023-03-01T09:54:45;13.00;99.90
24252;DHT22;12380;51.118;4.176;2023-03-01T09:57:36;13.60;99.90
24252;DHT22;12380;51.118;4.176;2023-03-01T10:10:46;13.00;99.90
24252;DHT22;12380;51.118;4.176;2023-03-01T10:13:31;12.40;99.90
24252;DHT22;12380;51.118;4.176;2023-03-01T10:16:24;12.60;99.90
24252;DHT22;12380;51.118;4.176;2023-03-01T10:18:57;12.60;99.90
24252;DHT22;12380;51.118;4.176;2023-03-01T10:21:26;12.60;99.90
24252;DHT22;12380;51.118;4.176;2023-03-01T10:23:54;12.60;99.90
24252;DHT22;12380;51.118;4.176;2023-03-01T10:26:38;12.40;99.90
24252;DHT22;12380;51.118;4.176;2023-03-01T10:29:07;12.10;99.90
24252;DHT22;12380;51.118;4.176;2023-03-01T10:34:16;11.80;99.90
24252;DHT22;12380;51.118;4.176;2023-03-01T10:36:50;11.60;99.90
24252;DHT22;12380;51.118;4.176;2023-03-01T10:39:25;12.40;99.90
24252;DHT22;12380;51.118;4.176;2023-03-01T10:44:43;13.10;99.90
24252;DHT22;12380;51.118;4.176;2023-03-01T10:47:27;13.20;99.90
24252;DHT22;12380;51.118;4.176;2023-03-01T10:52:21;13.40;99.90
24252;DHT22;12380;51.118;4.176;2023-03-01T10:54:57;14.00;99.90
24252;DHT22;12380;51.118;4.176;2023-03-01T10:57:36;13.60;99.90
24252;DHT22;12380;51.118;4.176;2023-03-01T11:02:49;13.20;99.90
24252;DHT22;12380;51.118;4.176;2023-03-01T11:05:17;13.10;99.90
24252;DHT22;12380;51.118;4.176;2023-03-01T11:07:53;13.60;99.90
24252;DHT22;12380;51.118;4.176;2023-03-01T11:10:26;13.80;99.90
24252;DHT22;12380;51.118;4.176;2023-03-01T11:12:53;13.80;99.90
24252;DHT22;12380;51.118;4.176;2023-03-01T11:15:33;14.10;99.90
24252;DHT22;12380;51.118;4.176;2023-03-01T11:17:58;13.50;99.90
24252;DHT22;12380;51.118;4.176;2023-03-01T11:20:43;13.60;99.90
24252;DHT22;12380;51.118;4.176;2023-03-01T11:23:12;14.60;99.90
24252;DHT22;12380;51.118;4.176;2023-03-01T11:25:46;14.70;99.90
24252;DHT22;12380;51.118;4.176;2023-03-01T11:28:16;14.40;99.90
24252;DHT22;12380;51.118;4.176;2023-03-01T11:30:57;14.60;99.90
24252;DHT22;12380;51.118;4.176;2023-03-01T11:38:48;13.70;99.90
24252;DHT22;12380;51.118;4.176;2023-03-01T11:41:20;13.60;99.90
24252;DHT22;12380;51.118;4.176;2023-03-01T11:44:00;13.70;99.90
24252;DHT22;12380;51.118;4.176;2023-03-01T11:57:09;14.30;99.90
24252;DHT22;12380;51.118;4.176;2023-03-01T12:16:45;14.10;99.90
24252;DHT22;12380;51.118;4.176;2023-03-01T12:38:49;14.50;99.90
24252;DHT22;12380;51.118;4.176;2023-03-01T12:49:34;14.60;99.90
24252;DHT22;12380;51.118;4.176;2023-03-01T12:54:51;14.80;99.90
24252;DHT22;12380;51.118;4.176;2023-03-01T13:00:10;15.10;99.90
24252;DHT22;12380;51.118;4.176;2023-03-01T13:11:11;14.90;99.90
24252;DHT22;12380;51.118;4.176;2023-03-01T13:13:45;14.40;99.90
24252;DHT22;12380;51.118;4.176;2023-03-01T13:21:39;14.90;99.90
24252;DHT22;12380;51.118;4.176;2023-03-01T13:24:56;14.40;99.90
24252;DHT22;12380;51.118;4.176;2023-03-01T13:32:36;14.20;99.90
24252;DHT22;12380;51.118;4.176;2023-03-01T13:37:40;14.70;99.90
24252;DHT22;12380;51.118;4.176;2023-03-01T13:42:45;14.90;99.90
24252;DHT22;12380;51.118;4.176;2023-03-01T13:48:15;15.10;99.90
24252;DHT22;12380;51.118;4.176;2023-03-01T13:50:51;15.70;99.90
24252;DHT22;12380;51.118;4.176;2023-03-01T13:53:21;15.40;99.90
24252;DHT22;12380;51.118;4.176;2023-03-01T13:55:51;15.40;99.90
24252;DHT22;12380;51.118;4.176;2023-03-01T13:58:30;15.40;99.90
24252;DHT22;12380;51.118;4.176;2023-03-01T14:01:06;14.50;99.90
24252;DHT22;12380;51.118;4.176;2023-03-01T14:03:39;14.30;99.90
24252;DHT22;12380;51.118;4.176;2023-03-01T14:06:08;14.30;99.90
24252;DHT22;12380;51.118;4.176;2023-03-01T14:08:37;14.30;99.90
24252;DHT22;12380;51.118;4.176;2023-03-01T14:19:41;13.60;99.90
24252;DHT22;12380;51.118;4.176;2023-03-01T14:22:26;13.70;99.90
24252;DHT22;12380;51.118;4.176;2023-03-01T14:25:19;14.20;99.90
24252;DHT22;12380;51.118;4.176;2023-03-01T14:30:36;14.00;99.90
24252;DHT22;12380;51.118;4.176;2023-03-01T14:33:06;13.90;99.90
24252;DHT22;12380;51.118;4.176;2023-03-01T14:35:34;14.10;99.90
24252;DHT22;12380;51.118;4.176;2023-03-01T14:38:00;13.40;99.90
24252;DHT22;12380;51.118;4.176;2023-03-01T14:40:35;12.70;99.90
24252;DHT22;12380;51.118;4.176;2023-03-01T14:43:09;12.90;99.90
24252;DHT22;12380;51.118;4.176;2023-03-01T14:45:38;13.40;99.90
24252;DHT22;12380;51.118;4.176;2023-03-01T14:48:05;13.10;99.90
24252;DHT22;12380;51.118;4.176;2023-03-01T14:50:32;13.40;99.90
24252;DHT22;12380;51.118;4.176;2023-03-01T14:53:04;13.30;99.90
24252;DHT22;12380;51.118;4.176;2023-03-01T14:55:40;13.40;99.90
24252;DHT22;12380;51.118;4.176;2023-03-01T14:58:12;13.50;99.90
24252;DHT22;12380;51.118;4.176;2023-03-01T15:00:39;13.00;99.90
24252;DHT22;12380;51.118;4.176;2023-03-01T15:03:38;13.10;99.90
24252;DHT22;12380;51.118;4.176;2023-03-01T15:06:07;12.90;99.90
24252;DHT22;12380;51.118;4.176;2023-03-01T15:08:34;13.20;99.90
24252;DHT22;12380;51.118;4.176;2023-03-01T15:11:39;13.10;99.90
24252;DHT22;12380;51.118;4.176;2023-03-01T15:14:28;13.60;99.90
24252;DHT22;12380;51.118;4.176;2023-03-01T15:16:55;13.30;99.90
24252;DHT22;12380;51.118;4.176;2023-03-01T15:19:24;12.90;99.90
24252;DHT22;12380;51.118;4.176;2023-03-01T15:21:53;12.60;99.90
24252;DHT22;12380;51.118;4.176;2023-03-01T15:24:24;12.30;99.90
24252;DHT22;12380;51.118;4.176;2023-03-01T15:26:55;11.90;99.90
24252;DHT22;12380;51.118;4.176;2023-03-01T15:29:25;11.90;99.90
24252;DHT22;12380;51.118;4.176;2023-03-01T15:31:58;11.50;99.90
24252;DHT22;12380;51.118;4.176;2023-03-01T15:34:31;11.40;99.90
24252;DHT22;12380;51.118;4.176;2023-03-01T15:36:58;11.70;99.90
24252;DHT22;12380;51.118;4.176;2023-03-01T15:39:41;11.80;99.90
24252;DHT22;12380;51.118;4.176;2023-03-01T15:42:57;12.00;99.90
24252;DHT22;12380;51.118;4.176;2023-03-01T15:47:48;12.00;99.90
24252;DHT22;12380;51.118;4.176;2023-03-01T15:50:27;12.40;99.90
24252;DHT22;12380;51.118;4.176;2023-03-01T15:52:54;12.30;99.90
24252;DHT22;12380;51.118;4.176;2023-03-01T15:55:25;12.10;99.90
24252;DHT22;12380;51.118;4.176;2023-03-01T15:58:00;11.40;99.90
24252;DHT22;12380;51.118;4.176;2023-03-01T16:00:29;11.20;99.90
24252;DHT22;12380;51.118;4.176;2023-03-01T16:02:57;10.70;99.90
24252;DHT22;12380;51.118;4.176;2023-03-01T16:05:30;10.80;99.90
24252;DHT22;12380;51.118;4.176;2023-03-01T16:07:57;10.40;99.90
24252;DHT22;12380;51.118;4.176;2023-03-01T16:10:23;10.00;99.90
24252;DHT22;12380;51.118;4.176;2023-03-01T16:12:50;9.90;99.90
24252;DHT22;12380;51.118;4.176;2023-03-01T16:15:32;9.80;99.90
24252;DHT22;12380;51.118;4.176;2023-03-01T16:18:00;9.80;99.90
24252;DHT22;12380;51.118;4.176;2023-03-01T16:20:27;9.80;99.90
24252;DHT22;12380;51.118;4.176;2023-03-01T16:22:53;9.60;99.90
24252;DHT22;12380;51.118;4.176;2023-03-01T16:25:24;9.30;99.90
24252;DHT22;12380;51.118;4.176;2023-03-01T16:27:50;9.50;99.90
24252;DHT22;12380;51.118;4.176;2023-03-01T16:30:19;9.70;99.90
24252;DHT22;12380;51.118;4.176;2023-03-01T16:32:47;9.50;99.90
24252;DHT22;12380;51.118;4.176;2023-03-01T16:35:14;9.20;99.90
24252;DHT22;12380;51.118;4.176;2023-03-01T16:37:40;8.80;99.90
24252;DHT22;12380;51.118;4.176;2023-03-01T16:40:19;9.00;99.90
24252;DHT22;12380;51.118;4.176;2023-03-01T16:42:47;9.00;99.90
24252;DHT22;12380;51.118;4.176;2023-03-01T16:45:12;9.20;99.90
24252;DHT22;12380;51.118;4.176;2023-03-01T16:47:38;8.90;99.90
24252;DHT22;12380;51.118;4.176;2023-03-01T16:50:07;8.60;99.90
24252;DHT22;12380;51.118;4.176;2023-03-01T16:52:33;8.20;99.90
24252;DHT22;12380;51.118;4.176;2023-03-01T16:54:59;8.10;99.90
24252;DHT22;12380;51.118;4.176;2023-03-01T16:57:25;8.10;99.90
24252;DHT22;12380;51.118;4.176;2023-03-01T16:59:51;8.20;99.90
24252;DHT22;12380;51.118;4.176;2023-03-01T17:02:18;8.10;99.90
24252;DHT22;12380;51.118;4.176;2023-03-01T17:04:50;8.20;99.90
24252;DHT22;12380;51.118;4.176;2023-03-01T17:07:16;8.20;99.90
24252;DHT22;12380;51.118;4.176;2023-03-01T17:09:42;8.20;99.90
24252;DHT22;12380;51.118;4.176;2023-03-01T17:12:08;8.30;99.90
24252;DHT22;12380;51.118;4.176;2023-03-01T17:14:34;8.20;99.90
24252;DHT22;12380;51.118;4.176;2023-03-01T17:17:00;7.90;99.90
24252;DHT22;12380;51.118;4.176;2023-03-01T17:19:28;8.00;99.90
24252;DHT22;12380;51.118;4.176;2023-03-01T17:21:56;7.90;99.90
24252;DHT22;12380;51.118;4.176;2023-03-01T17:24:22;7.40;99.90
24252;DHT22;12380;51.118;4.176;2023-03-01T17:26:48;7.30;99.90
24252;DHT22;12380;51.118;4.176;2023-03-01T17:29:13;7.20;99.90
24252;DHT22;12380;51.118;4.176;2023-03-01T17:31:43;6.80;99.90
24252;DHT22;12380;51.118;4.176;2023-03-01T17:34:09;6.70;99.90
24252;DHT22;12380;51.118;4.176;2023-03-01T17:36:34;7.10;99.90
24252;DHT22;12380;51.118;4.176;2023-03-01T17:39:08;7.10;99.90
24252;DHT22;12380;51.118;4.176;2023-03-01T17:41:34;7.30;99.90
24252;DHT22;12380;51.118;4.176;2023-03-01T17:43:59;6.90;99.90
24252;DHT22;12380;51.118;4.176;2023-03-01T17:46:28;7.20;99.90
24252;DHT22;12380;51.118;4.176;2023-03-01T17:48:53;7.10;99.90
24252;DHT22;12380;51.118;4.176;2023-03-01T17:51:22;6.90;99.90
24252;DHT22;12380;51.118;4.176;2023-03-01T17:53:48;6.80;99.90
24252;DHT22;12380;51.118;4.176;2023-03-01T17:56:16;6.50;99.90
24252;DHT22;12380;51.118;4.176;2023-03-01T17:58:41;6.20;99.90
24252;DHT22;12380;51.118;4.176;2023-03-01T18:01:08;6.10;99.90
24252;DHT22;12380;51.118;4.176;2023-03-01T18:03:34;6.20;99.90
24252;DHT22;12380;51.118;4.176;2023-03-01T18:05:59;6.00;99.90
24252;DHT22;12380;51.118;4.176;2023-03-01T18:08:25;6.30;99.90
24252;DHT22;12380;51.118;4.176;2023-03-01T18:10:57;6.10;99.90
24252;DHT22;12380;51.118;4.176;2023-03-01T18:13:28;6.00;99.90
24252;DHT22;12380;51.118;4.176;2023-03-01T18:15:54;5.90;99.90
24252;DHT22;12380;51.118;4.176;2023-03-01T18:18:31;5.90;99.90
24252;DHT22;12380;51.118;4.176;2023-03-01T18:20:59;5.90;99.90
24252;DHT22;12380;51.118;4.176;2023-03-01T18:23:26;5.70;99.90
24252;DHT22;12380;51.118;4.176;2023-03-01T18:26:00;5.40;99.90
24252;DHT22;12380;51.118;4.176;2023-03-01T18:28:30;5.40;99.90
24252;DHT22;12380;51.118;4.176;2023-03-01T18:31:01;5.50;99.90
24252;DHT22;12380;51.118;4.176;2023-03-01T18:33:28;5.30;99.90
24252;DHT22;12380;51.118;4.176;2023-03-01T18:35:54;5.30;99.90
24252;DHT22;12380;51.118;4.176;2023-03-01T18:38:20;5.30;99.90